createdAt,value
2023-03-28T00:01:14.430Z,5.88
2023-03-28T00:05:14.475Z,5.94
2023-03-28T00:09:14.765Z,5.83
2023-03-28T00:13:14.745Z,5.38
2023-03-28T00:17:14.782Z,5.19
2023-03-28T00:21:15.315Z,5.18
2023-03-28T00:25:15.105Z,5.40
2023-03-28T00:29:15.257Z,5.51
2023-03-28T00:33:15.434Z,5.41
2023-03-28T00:37:15.504Z,5.16
2023-03-28T00:41:15.746Z,5.52
2023-03-28T00:45:16.272Z,5.56
2023-03-28T00:49:16.342Z,5.40
2023-03-28T00:53:16.016Z,5.28
2023-03-28T00:57:16.192Z,5.52
2023-03-28T01:01:16.369Z,5.62
2023-03-28T01:05:16.759Z,5.88
2023-03-28T01:09:16.768Z,5.81
2023-03-28T01:13:16.541Z,6.04
2023-03-28T01:17:16.627Z,5.79
2023-03-28T01:21:17.331Z,5.32
2023-03-28T01:25:17.415Z,5.64
2023-03-28T01:29:17.353Z,5.73
2023-03-28T01:33:17.329Z,5.83
2023-03-28T01:37:17.745Z,6.00
2023-03-28T01:41:17.757Z,5.98
2023-03-28T01:45:17.749Z,5.99
2023-03-28T01:49:17.378Z,5.98
2023-03-28T01:53:17.351Z,6.01
2023-03-28T01:57:17.403Z,5.99
2023-03-28T02:01:17.810Z,5.86
2023-03-28T02:05:17.272Z,5.90
2023-03-28T02:09:17.362Z,5.92
2023-03-28T02:13:17.188Z,5.95
2023-03-28T02:17:17.320Z,5.95
2023-03-28T02:21:17.288Z,5.90
2023-03-28T02:25:17.790Z,5.91
2023-03-28T02:29:17.614Z,5.93
2023-03-28T02:33:17.765Z,5.87
2023-03-28T02:37:17.966Z,5.72
2023-03-28T02:41:18.302Z,5.83
2023-03-28T02:45:18.307Z,5.77
2023-03-28T02:49:18.311Z,5.74
2023-03-28T02:53:17.789Z,5.80
2023-03-28T02:57:17.801Z,5.84
2023-03-28T03:01:17.819Z,5.75
2023-03-28T03:05:17.797Z,5.77
2023-03-28T03:09:17.665Z,5.72
2023-03-28T03:13:17.812Z,5.48
2023-03-28T03:17:17.930Z,5.28
2023-03-28T03:21:18.327Z,5.07
2023-03-28T03:25:18.301Z,5.31
2023-03-28T03:29:18.016Z,5.24
2023-03-28T03:33:17.973Z,5.15
2023-03-28T03:37:18.311Z,5.31
2023-03-28T03:41:18.290Z,5.54
2023-03-28T03:45:18.317Z,5.70
2023-03-28T03:49:17.831Z,5.78
2023-03-28T03:53:17.781Z,5.66
2023-03-28T03:57:17.828Z,5.70
2023-03-28T04:01:17.800Z,5.68
2023-03-28T04:05:17.806Z,5.79
2023-03-28T04:09:17.663Z,5.83
2023-03-28T04:13:17.794Z,5.85
2023-03-28T04:17:17.809Z,5.88
2023-03-28T04:21:17.789Z,5.88
2023-03-28T04:25:17.522Z,5.88
2023-03-28T04:29:17.801Z,5.89
2023-03-28T04:33:17.399Z,5.91
2023-03-28T04:37:17.808Z,5.95
2023-03-28T04:41:17.827Z,5.95
2023-03-28T04:45:18.292Z,5.70
2023-03-28T04:49:18.300Z,5.87
2023-03-28T04:53:18.245Z,5.78
2023-03-28T04:57:18.488Z,5.72
2023-03-28T05:01:18.390Z,5.81
2023-03-28T05:05:18.112Z,5.92
2023-03-28T05:09:18.186Z,5.92
2023-03-28T05:13:18.573Z,5.93
2023-03-28T05:17:18.498Z,5.88
2023-03-28T05:21:18.507Z,5.81
2023-03-28T05:25:18.168Z,5.53
2023-03-28T05:29:18.376Z,5.43
2023-03-28T05:33:18.169Z,5.34
2023-03-28T05:37:18.385Z,5.49
2023-03-28T05:41:17.920Z,5.74
2023-03-28T05:45:18.367Z,5.91
2023-03-28T05:49:17.812Z,6.02
2023-03-28T05:53:17.842Z,5.70
2023-03-28T05:57:18.009Z,5.25
2023-03-28T06:01:17.693Z,5.17
2023-03-28T06:05:17.871Z,5.26
2023-03-28T06:09:17.614Z,5.28
2023-03-28T06:13:17.811Z,5.33
2023-03-28T06:17:17.830Z,5.34
2023-03-28T06:21:17.601Z,5.06
2023-03-28T06:25:17.832Z,5.06
2023-03-28T06:29:18.358Z,5.39
2023-03-28T06:33:18.331Z,5.36
2023-03-28T06:37:18.350Z,5.42
2023-03-28T06:41:18.250Z,5.58
2023-03-28T06:45:18.366Z,5.55
2023-03-28T06:49:18.868Z,5.81
2023-03-28T06:53:18.843Z,5.81
2023-03-28T07:01:38.685Z,5.58
2023-03-28T07:05:38.769Z,5.92
2023-03-28T07:09:38.503Z,5.78
2023-03-28T07:13:38.444Z,5.67
2023-03-28T07:17:38.457Z,5.94
2023-03-28T07:21:38.374Z,6.02
2023-03-28T07:25:38.372Z,6.06
2023-03-28T07:29:38.320Z,5.92
2023-03-28T07:33:38.570Z,6.16
2023-03-28T07:37:38.336Z,6.12
2023-03-28T07:41:38.544Z,6.06
2023-03-28T07:45:38.811Z,6.26
2023-03-28T07:49:38.826Z,6.39
2023-03-28T07:53:38.976Z,6.38
2023-03-28T07:57:38.999Z,6.40
2023-03-28T08:01:39.132Z,6.30
2023-03-28T08:05:39.453Z,6.56
2023-03-28T08:09:39.325Z,6.66
2023-03-28T08:13:39.376Z,6.70
2023-03-28T08:17:38.974Z,6.51
2023-03-28T08:21:39.312Z,6.61
2023-03-28T08:25:38.827Z,6.68
2023-03-28T08:29:38.775Z,6.95
2023-03-28T08:33:38.836Z,7.28
2023-03-28T08:37:38.696Z,7.41
2023-03-28T08:41:38.819Z,7.41
2023-03-28T08:45:38.759Z,7.36
2023-03-28T08:49:38.869Z,7.48
2023-03-28T08:53:38.558Z,7.57
2023-03-28T08:57:38.861Z,7.55
2023-03-28T09:01:38.855Z,7.60
2023-03-28T09:05:39.491Z,7.75
2023-03-28T09:09:39.436Z,7.99
2023-03-28T09:13:39.037Z,8.04
2023-03-28T09:17:39.363Z,7.99
2023-03-28T09:21:39.300Z,7.98
2023-03-28T09:25:39.803Z,8.10
2023-03-28T09:29:39.840Z,8.19
2023-03-28T09:33:39.453Z,8.12
2023-03-28T09:37:39.815Z,8.20
2023-03-28T09:41:39.830Z,8.45
2023-03-28T09:45:40.353Z,8.49
2023-03-28T09:49:39.998Z,8.48
2023-03-28T09:53:40.366Z,8.50
2023-03-28T09:57:40.365Z,8.73
2023-03-28T10:01:40.363Z,8.74
2023-03-28T10:05:40.096Z,8.86
2023-03-28T10:09:40.022Z,9.09
2023-03-28T10:13:39.951Z,9.30
2023-03-28T10:17:40.061Z,9.45
2023-03-28T10:21:40.015Z,9.27
2023-03-28T10:25:39.892Z,9.48
2023-03-28T10:29:39.818Z,9.27
2023-03-28T10:33:39.788Z,9.12
2023-03-28T10:37:39.803Z,9.40
2023-03-28T10:41:39.838Z,9.30
2023-03-28T10:45:40.051Z,9.18
2023-03-28T10:49:40.181Z,9.11
2023-03-28T10:53:40.358Z,9.56
2023-03-28T10:57:40.559Z,9.89
2023-03-28T11:01:52.386Z,9.86
2023-03-28T11:05:40.613Z,9.75
2023-03-28T11:09:40.609Z,9.58
2023-03-28T11:13:50.924Z,9.81
2023-03-28T11:17:40.568Z,9.96
2023-03-28T11:21:40.512Z,9.99
2023-03-28T11:25:40.454Z,9.77
2023-03-28T11:29:43.712Z,9.85
2023-03-28T11:33:40.364Z,10.00
2023-03-28T11:37:40.400Z,10.13
2023-03-28T11:41:40.362Z,10.28
2023-03-28T11:45:51.107Z,10.24
2023-03-28T11:49:41.247Z,10.25
2023-03-28T11:53:40.368Z,10.07
2023-03-28T11:57:40.433Z,10.30
2023-03-28T12:01:40.252Z,10.53
2023-03-28T12:05:40.548Z,10.64
2023-03-28T12:09:40.854Z,10.57
2023-03-28T12:13:46.066Z,10.28
2023-03-28T12:17:41.902Z,10.53
2023-03-28T12:21:40.493Z,10.95
2023-03-28T12:25:40.861Z,10.81
2023-03-28T12:29:40.892Z,10.89
2023-03-28T12:33:40.407Z,10.78
2023-03-28T12:37:40.872Z,10.61
2023-03-28T12:41:40.474Z,10.93
2023-03-28T12:45:40.937Z,10.83
2023-03-28T12:49:40.908Z,10.83
2023-03-28T12:53:41.422Z,11.06
2023-03-28T12:57:41.479Z,10.88
2023-03-28T13:01:52.446Z,10.84
2023-03-28T13:05:41.395Z,11.02
2023-03-28T13:09:41.156Z,10.97
2023-03-28T13:13:41.437Z,11.27
2023-03-28T13:17:41.115Z,11.42
2023-03-28T13:21:41.078Z,11.42
2023-03-28T13:25:41.129Z,11.36
2023-03-28T13:29:40.944Z,11.24
2023-03-28T13:33:42.919Z,10.75
2023-03-28T13:37:40.973Z,10.82
2023-03-28T13:41:40.816Z,11.00
2023-03-28T13:45:40.926Z,11.03
2023-03-28T13:49:40.965Z,10.86
2023-03-28T13:53:47.464Z,10.97
2023-03-28T13:57:41.918Z,10.96
2023-03-28T14:01:40.788Z,10.84
2023-03-28T14:05:41.013Z,11.00
2023-03-28T14:09:40.816Z,11.24
2023-03-28T14:13:40.960Z,11.36
2023-03-28T14:17:40.756Z,11.27
2023-03-28T14:21:40.680Z,11.23
2023-03-28T14:25:40.959Z,10.98
2023-03-28T14:29:40.967Z,11.18
2023-03-28T14:33:41.000Z,11.12
2023-03-28T14:37:41.500Z,11.21
2023-03-28T14:41:40.960Z,11.31
2023-03-28T14:45:41.134Z,11.00
2023-03-28T14:49:41.460Z,11.18
2023-03-28T14:53:41.182Z,11.24
2023-03-28T14:57:41.321Z,11.20
2023-03-28T15:01:41.529Z,11.04
2023-03-28T15:05:41.626Z,10.88
2023-03-28T15:09:42.051Z,10.77
2023-03-28T15:13:41.954Z,10.72
2023-03-28T15:17:42.137Z,10.76
2023-03-28T15:21:42.073Z,10.58
2023-03-28T15:25:41.809Z,10.46
2023-03-28T15:29:41.937Z,10.49
2023-03-28T15:33:41.794Z,10.45
2023-03-28T15:37:41.980Z,10.42
2023-03-28T15:41:41.681Z,10.52
2023-03-28T15:45:41.957Z,10.27
2023-03-28T15:49:41.675Z,10.42
2023-03-28T15:53:41.547Z,10.63
2023-03-28T15:57:42.028Z,10.58
2023-03-28T16:01:41.535Z,10.40
2023-03-28T16:05:41.956Z,10.46
2023-03-28T16:09:41.464Z,10.34
2023-03-28T16:13:41.409Z,10.07
2023-03-28T16:17:41.451Z,10.00
2023-03-28T16:21:41.500Z,9.89
2023-03-28T16:25:41.983Z,9.86
2023-03-28T16:29:41.751Z,9.95
2023-03-28T16:33:41.995Z,9.96
2023-03-28T16:37:42.486Z,10.09
2023-03-28T16:41:42.493Z,10.21
2023-03-28T16:45:42.510Z,10.24
2023-03-28T16:49:42.396Z,10.18
2023-03-28T16:53:42.977Z,9.95
2023-03-28T16:57:42.997Z,10.10
2023-03-28T17:01:43.087Z,10.14
2023-03-28T17:05:42.921Z,10.02
2023-03-28T17:09:43.077Z,10.11
2023-03-28T17:13:43.132Z,10.08
2023-03-28T17:17:43.545Z,10.19
2023-03-28T17:21:42.964Z,10.15
2023-03-28T17:25:53.856Z,10.04
2023-03-28T17:29:43.896Z,10.02
2023-03-28T17:33:42.963Z,10.02
2023-03-28T17:37:42.960Z,10.03
2023-03-28T17:41:42.979Z,9.88
2023-03-28T17:45:42.979Z,9.62
2023-03-28T17:49:42.697Z,9.64
2023-03-28T17:53:42.995Z,9.63
2023-03-28T17:57:42.820Z,9.76
2023-03-28T18:01:43.070Z,9.71
2023-03-28T18:05:43.048Z,9.74
2023-03-28T18:09:43.191Z,9.73
2023-03-28T18:13:43.474Z,9.72
2023-03-28T18:17:43.520Z,9.68
2023-03-28T18:21:43.961Z,9.59
2023-03-28T18:25:43.449Z,9.53
2023-03-28T18:29:43.514Z,9.54
2023-03-28T18:33:43.412Z,9.40
2023-03-28T18:37:43.478Z,9.24
2023-03-28T18:41:43.518Z,9.24
2023-03-28T18:45:43.250Z,9.18
2023-03-28T18:49:43.279Z,9.18
2023-03-28T18:53:43.487Z,9.24
2023-03-28T18:57:43.516Z,9.27
2023-03-28T19:01:44.989Z,9.28
2023-03-28T19:05:43.144Z,9.16
2023-03-28T19:09:43.077Z,9.17
2023-03-28T19:13:43.526Z,9.18
2023-03-28T19:17:43.085Z,9.05
2023-03-28T19:21:43.169Z,9.07
2023-03-28T19:25:43.540Z,8.93
2023-03-28T19:29:43.414Z,8.97
2023-03-28T19:33:43.516Z,8.90
2023-03-28T19:37:43.542Z,8.94
2023-03-28T19:41:43.791Z,8.90
2023-03-28T19:45:44.064Z,8.91
2023-03-28T19:49:44.672Z,8.90
2023-03-28T19:53:44.560Z,8.85
2023-03-28T19:57:44.535Z,8.88
2023-03-28T20:01:44.661Z,8.65
2023-03-28T20:05:44.986Z,8.73
2023-03-28T20:09:45.153Z,8.72
2023-03-28T20:13:45.071Z,8.72
2023-03-28T20:17:45.703Z,8.72
2023-03-28T20:21:45.446Z,8.73
2023-03-28T20:25:46.019Z,8.77
2023-03-28T20:29:45.934Z,8.76
2023-03-28T20:33:46.163Z,8.76
2023-03-28T20:37:46.132Z,8.71
2023-03-28T20:41:46.527Z,8.70
2023-03-28T20:45:46.504Z,8.57
2023-03-28T20:49:46.108Z,8.63
2023-03-28T20:53:46.030Z,8.63
2023-03-28T20:57:46.021Z,8.61
2023-03-28T21:01:46.142Z,8.51
2023-03-28T21:05:46.221Z,8.42
2023-03-28T21:09:45.852Z,8.52
2023-03-28T21:13:46.149Z,8.51
2023-03-28T21:17:46.024Z,8.38
2023-03-28T21:21:46.696Z,8.46
2023-03-28T21:25:46.421Z,8.51
2023-03-28T21:29:46.562Z,8.43
2023-03-28T21:33:46.589Z,8.38
2023-03-28T21:37:46.627Z,8.25
2023-03-28T21:41:47.138Z,8.18
2023-03-28T21:45:47.095Z,8.30
2023-03-28T21:49:47.115Z,8.33
2023-03-28T21:53:46.641Z,8.07
2023-03-28T21:57:47.101Z,8.08
2023-03-28T22:01:46.701Z,8.18
2023-03-28T22:05:47.039Z,8.24
2023-03-28T22:09:47.050Z,8.30
2023-03-28T22:13:46.633Z,8.32
2023-03-28T22:17:47.463Z,8.28
2023-03-28T22:21:47.146Z,8.30
2023-03-28T22:25:47.077Z,8.27
2023-03-28T22:29:47.084Z,8.25
2023-03-28T22:33:46.829Z,8.26
2023-03-28T22:37:46.863Z,8.30
2023-03-28T22:41:47.112Z,8.07
2023-03-28T22:45:47.077Z,8.17
2023-03-28T22:49:47.070Z,8.19
2023-03-28T22:53:47.016Z,8.19
2023-03-28T22:57:47.057Z,8.22
2023-03-28T23:01:47.628Z,8.26
2023-03-28T23:05:47.567Z,8.11
2023-03-28T23:09:47.581Z,8.21
2023-03-28T23:13:47.436Z,8.19
2023-03-28T23:17:47.687Z,8.20
2023-03-28T23:21:47.544Z,8.22
2023-03-28T23:25:47.613Z,8.24
2023-03-28T23:29:47.582Z,8.27
2023-03-28T23:33:47.698Z,8.25
2023-03-28T23:37:48.080Z,8.25
2023-03-28T23:41:48.103Z,8.23
2023-03-28T23:45:48.136Z,8.26
2023-03-28T23:49:47.907Z,8.27
2023-03-28T23:53:47.942Z,8.28
2023-03-28T23:57:48.100Z,8.26
